createdAt,value
2023-01-19T00:01:18.288Z,9.38
2023-01-19T00:06:21.278Z,7.95
2023-01-19T00:11:25.322Z,11.63
2023-01-19T00:16:26.731Z,7.43
2023-01-19T00:21:28.326Z,8.80
2023-01-19T00:26:29.734Z,11.00
2023-01-19T00:31:34.074Z,10.45
2023-01-19T00:36:35.664Z,9.63
2023-01-19T00:41:56.623Z,11.05
2023-01-19T00:46:58.156Z,10.85
2023-01-19T00:51:59.621Z,11.30
2023-01-19T00:57:01.449Z,10.02
2023-01-19T01:02:03.982Z,11.20
2023-01-19T01:07:06.266Z,10.00
2023-01-19T01:12:13.883Z,10.35
2023-01-19T01:17:15.542Z,4.53
2023-01-19T01:22:17.244Z,7.65
2023-01-19T01:27:18.668Z,10.85
2023-01-19T01:32:20.835Z,9.15
2023-01-19T01:37:22.236Z,6.57
2023-01-19T01:42:31.819Z,6.90
2023-01-19T01:47:43.558Z,6.25
2023-01-19T01:53:07.135Z,6.65
2023-01-19T01:58:11.370Z,4.68
2023-01-19T02:03:12.888Z,7.95
2023-01-19T02:08:36.009Z,8.25
2023-01-19T02:13:43.744Z,7.80
2023-01-19T02:18:45.384Z,4.28
2023-01-19T02:23:52.515Z,6.78
2023-01-19T02:29:03.675Z,7.30
2023-01-19T02:34:06.991Z,6.32
2023-01-19T02:39:10.620Z,4.72
2023-01-19T02:44:14.327Z,4.50
2023-01-19T02:49:15.704Z,4.05
2023-01-19T02:54:39.185Z,3.33
2023-01-19T03:00:01.383Z,4.35
2023-01-19T03:05:45.020Z,2.80
2023-01-19T03:11:07.925Z,2.90
2023-01-19T03:16:22.495Z,2.50
2023-01-19T03:21:27.635Z,2.13
2023-01-19T03:26:31.834Z,1.88
2023-01-19T03:31:34.856Z,1.13
2023-01-19T03:36:42.030Z,1.08
2023-01-19T03:41:47.891Z,0.77
2023-01-19T03:46:50.392Z,0.90
2023-01-19T03:51:55.455Z,1.60
2023-01-19T03:56:56.839Z,0.90
2023-01-19T04:01:58.537Z,1.55
2023-01-19T04:07:00.058Z,0.70
2023-01-19T04:12:01.939Z,0.80
2023-01-19T04:17:03.340Z,0.57
2023-01-19T04:22:04.830Z,0.63
2023-01-19T04:27:06.289Z,0.63
2023-01-19T04:32:07.905Z,1.00
2023-01-19T04:37:09.545Z,0.98
2023-01-19T04:42:10.965Z,1.10
2023-01-19T04:47:12.354Z,0.88
2023-01-19T04:52:13.713Z,0.85
2023-01-19T04:57:15.128Z,1.58
2023-01-19T05:02:17.632Z,1.02
2023-01-19T05:07:19.065Z,1.17
2023-01-19T05:12:20.875Z,0.40
2023-01-19T05:17:22.334Z,0.63
2023-01-19T05:22:24.336Z,0.38
2023-01-19T05:27:25.720Z,1.00
2023-01-19T05:32:27.192Z,0.70
2023-01-19T05:37:28.726Z,0.80
2023-01-19T05:42:32.088Z,0.82
2023-01-19T05:47:34.249Z,0.57
2023-01-19T05:52:35.655Z,0.82
2023-01-19T05:57:39.473Z,0.90
2023-01-19T06:02:40.942Z,0.85
2023-01-19T06:07:42.635Z,2.15
2023-01-19T06:12:44.012Z,1.73
2023-01-19T06:17:45.913Z,1.42
2023-01-19T06:22:47.971Z,1.77
2023-01-19T06:27:49.419Z,0.90
2023-01-19T06:32:54.776Z,1.10
2023-01-19T06:37:57.685Z,1.27
2023-01-19T06:42:59.416Z,1.85
2023-01-19T06:48:02.326Z,1.35
2023-01-19T06:53:09.525Z,1.90
2023-01-19T06:58:11.912Z,1.67
2023-01-19T07:03:20.745Z,1.73
2023-01-19T07:08:24.980Z,1.98
2023-01-19T07:13:26.416Z,1.80
2023-01-19T07:18:28.079Z,2.10
2023-01-19T07:23:30.765Z,2.17
2023-01-19T07:28:32.926Z,2.25
2023-01-19T07:33:35.950Z,2.00
2023-01-19T07:38:37.616Z,3.15
2023-01-19T07:43:39.086Z,2.33
2023-01-19T07:48:41.534Z,2.63
2023-01-19T07:53:43.438Z,2.70
2023-01-19T07:58:44.926Z,5.55
2023-01-19T08:03:48.869Z,3.50
2023-01-19T08:08:50.697Z,1.77
2023-01-19T08:13:52.127Z,3.13
2023-01-19T08:18:53.554Z,2.97
2023-01-19T08:23:56.809Z,3.70
2023-01-19T08:29:02.224Z,4.65
2023-01-19T08:34:03.722Z,5.30
2023-01-19T08:39:05.246Z,3.70
2023-01-19T08:44:06.867Z,3.63
2023-01-19T08:49:08.677Z,3.20
2023-01-19T08:54:10.702Z,2.53
2023-01-19T08:59:13.277Z,3.30
2023-01-19T09:04:15.525Z,4.88
2023-01-19T09:09:16.926Z,5.30
2023-01-19T09:14:18.347Z,4.60
2023-01-19T09:19:19.788Z,2.88
2023-01-19T09:24:21.285Z,4.70
2023-01-19T09:29:22.871Z,3.63
2023-01-19T09:34:25.570Z,2.67
2023-01-19T09:39:27.117Z,4.05
2023-01-19T09:44:34.335Z,0.60
2023-01-19T09:49:40.505Z,2.95
2023-01-19T09:54:55.679Z,1.67
2023-01-19T10:00:00.119Z,2.10
2023-01-19T10:05:25.781Z,2.45
2023-01-19T10:10:29.172Z,2.15
2023-01-19T10:15:45.912Z,1.92
2023-01-19T10:20:56.084Z,1.70
2023-01-19T10:26:00.953Z,1.80
2023-01-19T10:31:05.011Z,2.03
2023-01-19T10:36:16.771Z,2.63
2023-01-19T10:41:24.438Z,4.85
2023-01-19T10:46:34.587Z,5.20
2023-01-19T10:51:48.404Z,3.78
2023-01-19T10:57:10.191Z,6.15
2023-01-19T11:02:18.103Z,6.38
2023-01-19T11:07:23.163Z,5.60
2023-01-19T11:12:24.685Z,4.57
2023-01-19T11:17:26.374Z,5.20
2023-01-19T11:22:34.739Z,5.18
2023-01-19T11:27:37.819Z,6.72
2023-01-19T11:32:39.700Z,6.97
2023-01-19T11:37:43.278Z,6.35
2023-01-19T11:42:44.873Z,8.35
2023-01-19T11:47:51.689Z,6.57
2023-01-19T11:52:59.035Z,6.40
2023-01-19T11:58:00.873Z,6.97
2023-01-19T12:03:08.522Z,6.75
2023-01-19T12:08:17.660Z,5.50
2023-01-19T12:13:25.167Z,5.28
2023-01-19T12:18:51.265Z,5.07
2023-01-19T12:24:16.315Z,5.13
2023-01-19T12:29:23.753Z,5.90
2023-01-19T12:34:25.292Z,4.82
2023-01-19T12:39:26.741Z,6.05
2023-01-19T12:44:30.748Z,5.45
2023-01-19T12:49:42.600Z,4.80
2023-01-19T12:54:52.058Z,3.33
2023-01-19T12:59:59.788Z,5.43
2023-01-19T13:05:32.683Z,2.53
2023-01-19T13:10:59.449Z,1.38
2023-01-19T13:16:19.528Z,1.33
2023-01-19T13:21:36.642Z,0.90
2023-01-19T13:26:42.366Z,1.35
2023-01-19T13:31:45.829Z,1.02
2023-01-19T13:36:52.561Z,0.63
2023-01-19T13:41:58.084Z,0.75
2023-01-19T13:47:03.001Z,1.25
2023-01-19T13:52:21.080Z,0.80
2023-01-19T13:57:43.100Z,1.05
2023-01-19T14:03:13.768Z,1.10
2023-01-19T14:08:18.041Z,0.90
2023-01-19T14:13:21.314Z,1.00
2023-01-19T14:18:30.219Z,0.82
2023-01-19T14:24:19.825Z,1.15
2023-01-19T14:29:26.801Z,0.47
2023-01-19T14:40:10.721Z,1.58
2023-01-19T14:45:21.287Z,1.05
2023-01-19T14:50:39.073Z,1.77
2023-01-19T14:55:49.083Z,1.77
2023-01-19T15:00:55.609Z,1.08
2023-01-19T15:05:59.022Z,1.20
2023-01-19T15:11:10.518Z,1.58
2023-01-19T15:16:12.129Z,1.73
2023-01-19T15:21:15.538Z,1.17
2023-01-19T15:26:22.805Z,1.50
2023-01-19T15:31:26.145Z,1.40
2023-01-19T15:36:27.629Z,1.45
2023-01-19T15:41:32.100Z,1.23
2023-01-19T15:46:33.732Z,1.48
2023-01-19T15:51:35.402Z,2.25
2023-01-19T15:56:39.474Z,8.40
2023-01-19T16:01:42.005Z,7.32
2023-01-19T16:06:43.689Z,8.68
2023-01-19T16:11:45.340Z,10.93
2023-01-19T16:16:47.145Z,12.68
2023-01-19T16:21:48.704Z,11.40
2023-01-19T16:26:51.420Z,13.75
2023-01-19T16:31:53.597Z,16.52
2023-01-19T16:36:55.213Z,15.65
2023-01-19T16:41:56.857Z,14.52
2023-01-19T16:46:59.337Z,12.95
2023-01-19T16:52:01.181Z,13.35
2023-01-19T16:57:02.947Z,13.18
2023-01-19T17:02:04.674Z,13.80
2023-01-19T17:07:07.556Z,13.13
2023-01-19T17:12:09.753Z,13.88
2023-01-19T17:17:11.507Z,15.77
2023-01-19T17:22:14.427Z,13.82
2023-01-19T17:27:17.387Z,16.55
2023-01-19T17:32:18.947Z,18.02
2023-01-19T17:37:20.470Z,20.00
2023-01-19T17:42:21.884Z,21.85
2023-01-19T17:47:25.935Z,18.58
2023-01-19T17:52:27.399Z,21.73
2023-01-19T17:57:31.649Z,20.48
2023-01-19T18:02:34.380Z,23.02
2023-01-19T18:07:35.822Z,24.63
2023-01-19T18:12:37.608Z,14.27
2023-01-19T18:17:39.729Z,18.52
2023-01-19T18:22:42.683Z,21.02
2023-01-19T18:27:46.362Z,16.90
2023-01-19T18:32:48.197Z,23.95
2023-01-19T18:37:49.617Z,20.33
2023-01-19T18:42:51.154Z,22.88
2023-01-19T18:47:52.656Z,20.83
2023-01-19T18:52:54.405Z,20.58
2023-01-19T18:57:55.808Z,24.00
2023-01-19T19:03:12.696Z,11.87
2023-01-19T19:08:14.301Z,11.85
2023-01-19T19:13:19.554Z,16.63
2023-01-19T19:18:21.185Z,10.30
2023-01-19T19:23:22.588Z,19.75
2023-01-19T19:28:24.081Z,21.00
2023-01-19T19:33:28.216Z,23.58
2023-01-19T19:38:29.802Z,30.95
2023-01-19T19:43:32.838Z,24.65
2023-01-19T19:48:36.670Z,24.50
2023-01-19T19:53:40.309Z,22.23
2023-01-19T19:58:42.979Z,26.98
2023-01-19T20:03:44.933Z,25.30
2023-01-19T20:08:47.728Z,25.90
2023-01-19T20:13:51.032Z,24.15
2023-01-19T20:18:55.273Z,29.58
2023-01-19T20:24:01.008Z,25.73
2023-01-19T20:29:06.866Z,23.23
2023-01-19T20:34:10.595Z,21.25
2023-01-19T20:39:13.183Z,21.33
2023-01-19T20:44:21.272Z,21.30
2023-01-19T20:49:24.851Z,20.85
2023-01-19T20:54:27.988Z,22.20
2023-01-19T20:59:29.596Z,21.92
2023-01-19T21:04:31.210Z,21.38
2023-01-19T21:09:32.660Z,21.60
2023-01-19T21:14:34.118Z,19.35
2023-01-19T21:19:35.571Z,19.80
2023-01-19T21:24:37.087Z,17.90
2023-01-19T21:29:42.267Z,15.95
2023-01-19T21:34:45.341Z,15.77
2023-01-19T21:39:47.066Z,14.77
2023-01-19T21:44:51.620Z,14.95
2023-01-19T21:49:53.023Z,15.65
2023-01-19T21:54:55.538Z,14.38
2023-01-19T21:59:57.957Z,12.50
2023-01-19T22:04:59.634Z,10.48
2023-01-19T22:10:01.256Z,14.57
2023-01-19T22:15:04.842Z,15.07
2023-01-19T22:20:07.028Z,15.25
2023-01-19T22:25:08.953Z,11.70
2023-01-19T22:30:10.995Z,13.70
2023-01-19T22:35:15.313Z,17.73
2023-01-19T22:40:17.564Z,16.23
2023-01-19T22:45:19.107Z,14.32
2023-01-19T22:50:21.622Z,14.65
2023-01-19T22:55:23.145Z,14.60
2023-01-19T23:00:24.597Z,12.75
2023-01-19T23:05:26.068Z,11.27
2023-01-19T23:10:28.209Z,9.25
2023-01-19T23:15:29.689Z,9.25
2023-01-19T23:20:31.087Z,9.75
2023-01-19T23:25:32.556Z,10.25
2023-01-19T23:30:34.101Z,7.18
2023-01-19T23:35:35.686Z,5.50
2023-01-19T23:40:38.519Z,6.03
2023-01-19T23:45:40.051Z,6.25
2023-01-19T23:50:41.515Z,6.75
2023-01-19T23:55:42.999Z,8.05
